sensor_id;sensor_type;location;lat;lon;timestamp;pressure;altitude;pressure_sealevel;temperature;humidity
60897;BME280;46749;32.932;-117.130;2023-04-15T00:00:54;101166.19;;;14.70;54.29
60897;BME280;46749;32.932;-117.130;2023-04-15T00:03:20;101169.72;;;14.71;54.28
60897;BME280;46749;32.932;-117.130;2023-04-15T00:05:47;101166.19;;;14.70;54.29
60897;BME280;46749;32.932;-117.130;2023-04-15T00:08:13;101178.47;;;14.71;54.24
60897;BME280;46749;32.932;-117.130;2023-04-15T00:10:40;101174.03;;;14.70;54.23
60897;BME280;46749;32.932;-117.130;2023-04-15T00:13:09;101170.63;;;14.71;54.37
60897;BME280;46749;32.932;-117.130;2023-04-15T00:15:35;101179.34;;;14.72;54.12
60897;BME280;46749;32.932;-117.130;2023-04-15T00:18:02;101167.13;;;14.71;54.59
60897;BME280;46749;32.932;-117.130;2023-04-15T00:20:29;101173.22;;;14.71;54.37
60897;BME280;46749;32.932;-117.130;2023-04-15T00:22:56;101181.97;;;14.73;54.26
60897;BME280;46749;32.932;-117.130;2023-04-15T00:25:23;101187.22;;;14.73;54.18
60897;BME280;46749;32.932;-117.130;2023-04-15T00:27:49;101181.09;;;14.73;54.27
60897;BME280;46749;32.932;-117.130;2023-04-15T00:30:15;101181.97;;;14.73;54.50
60897;BME280;46749;32.932;-117.130;2023-04-15T00:32:42;101188.09;;;14.74;54.15
60897;BME280;46749;32.932;-117.130;2023-04-15T00:35:08;101179.38;;;14.73;53.87
60897;BME280;46749;32.932;-117.130;2023-04-15T00:37:34;101180.25;;;14.74;54.26
60897;BME280;46749;32.932;-117.130;2023-04-15T00:40:01;101179.41;;;14.75;54.38
60897;BME280;46749;32.932;-117.130;2023-04-15T00:42:28;101183.75;;;14.74;54.32
60897;BME280;46749;32.932;-117.130;2023-04-15T00:44:54;101175.06;;;14.75;54.36
60897;BME280;46749;32.932;-117.130;2023-04-15T00:47:22;101187.28;;;14.76;54.18
60897;BME280;46749;32.932;-117.130;2023-04-15T00:49:48;101175.06;;;14.75;54.30
60897;BME280;46749;32.932;-117.130;2023-04-15T00:52:14;101171.59;;;14.76;54.23
60897;BME280;46749;32.932;-117.130;2023-04-15T00:54:41;101172.44;;;14.75;54.40
60897;BME280;46749;32.932;-117.130;2023-04-15T00:57:07;101185.53;;;14.77;54.38
60897;BME280;46749;32.932;-117.130;2023-04-15T00:59:34;101174.22;;;14.76;54.42
60897;BME280;46749;32.932;-117.130;2023-04-15T01:02:00;101178.63;;;14.77;54.29
60897;BME280;46749;32.932;-117.130;2023-04-15T01:04:27;101189.09;;;14.77;54.29
60897;BME280;46749;32.932;-117.130;2023-04-15T01:06:53;101189.09;;;14.77;54.27
60897;BME280;46749;32.932;-117.130;2023-04-15T01:09:19;101188.22;;;14.78;54.12
60897;BME280;46749;32.932;-117.130;2023-04-15T01:11:46;101185.63;;;14.78;54.16
60897;BME280;46749;32.932;-117.130;2023-04-15T01:14:12;101187.38;;;14.79;53.96
60897;BME280;46749;32.932;-117.130;2023-04-15T01:16:39;101180.38;;;14.78;54.29
60897;BME280;46749;32.932;-117.130;2023-04-15T01:19:07;101183.88;;;14.79;54.24
60897;BME280;46749;32.932;-117.130;2023-04-15T01:21:36;101189.16;;;14.80;54.23
60897;BME280;46749;32.932;-117.130;2023-04-15T01:24:09;101194.38;;;14.80;53.93
60897;BME280;46749;32.932;-117.130;2023-04-15T01:26:37;101201.38;;;14.81;54.21
60897;BME280;46749;32.932;-117.130;2023-04-15T01:29:04;101200.47;;;14.81;54.34
60897;BME280;46749;32.932;-117.130;2023-04-15T01:31:31;101202.25;;;14.82;54.19
60897;BME280;46749;32.932;-117.130;2023-04-15T01:33:59;101206.59;;;14.81;54.32
60897;BME280;46749;32.932;-117.130;2023-04-15T01:36:26;101203.97;;;14.81;54.25
60897;BME280;46749;32.932;-117.130;2023-04-15T01:38:53;101198.75;;;14.81;54.22
60897;BME280;46749;32.932;-117.130;2023-04-15T01:41:27;101196.13;;;14.81;54.13
60897;BME280;46749;32.932;-117.130;2023-04-15T01:43:53;101199.63;;;14.82;54.15
60897;BME280;46749;32.932;-117.130;2023-04-15T01:46:21;101210.97;;;14.82;53.98
60897;BME280;46749;32.932;-117.130;2023-04-15T01:48:47;101207.53;;;14.83;54.20
60897;BME280;46749;32.932;-117.130;2023-04-15T01:51:13;101208.38;;;14.82;54.09
60897;BME280;46749;32.932;-117.130;2023-04-15T01:53:40;101214.47;;;14.83;54.16
60897;BME280;46749;32.932;-117.130;2023-04-15T01:56:06;101210.16;;;14.83;54.17
60897;BME280;46749;32.932;-117.130;2023-04-15T01:58:32;101206.69;;;14.84;54.45
60897;BME280;46749;32.932;-117.130;2023-04-15T02:00:59;101218.88;;;14.84;54.10
60897;BME280;46749;32.932;-117.130;2023-04-15T02:03:25;101222.38;;;14.84;54.40
60897;BME280;46749;32.932;-117.130;2023-04-15T02:05:52;101226.81;;;14.87;54.57
60897;BME280;46749;32.932;-117.130;2023-04-15T02:08:18;101230.34;;;14.89;54.11
60897;BME280;46749;32.932;-117.130;2023-04-15T02:10:44;101233.00;;;14.91;54.41
60897;BME280;46749;32.932;-117.130;2023-04-15T02:13:11;101233.03;;;14.92;54.44
60897;BME280;46749;32.932;-117.130;2023-04-15T02:15:37;101238.31;;;14.94;54.58
60897;BME280;46749;32.932;-117.130;2023-04-15T02:18:04;101245.31;;;14.95;54.47
60897;BME280;46749;32.932;-117.130;2023-04-15T02:20:30;101253.16;;;14.95;54.64
60897;BME280;46749;32.932;-117.130;2023-04-15T02:22:56;101254.03;;;14.95;54.80
60897;BME280;46749;32.932;-117.130;2023-04-15T02:25:23;101254.03;;;14.95;54.82
60897;BME280;46749;32.932;-117.130;2023-04-15T02:27:49;101258.44;;;14.96;54.75
60897;BME280;46749;32.932;-117.130;2023-04-15T02:30:15;101254.97;;;14.97;54.60
60897;BME280;46749;32.932;-117.130;2023-04-15T02:32:42;101256.75;;;14.98;55.03
60897;BME280;46749;32.932;-117.130;2023-04-15T02:35:09;101257.63;;;14.99;54.72
60897;BME280;46749;32.932;-117.130;2023-04-15T02:37:36;101257.63;;;14.99;55.04
60897;BME280;46749;32.932;-117.130;2023-04-15T02:40:09;101262.88;;;14.99;54.84
60897;BME280;46749;32.932;-117.130;2023-04-15T02:42:39;101273.31;;;14.99;54.93
60897;BME280;46749;32.932;-117.130;2023-04-15T02:45:06;101271.59;;;14.99;54.88
60897;BME280;46749;32.932;-117.130;2023-04-15T02:47:34;101276.81;;;14.99;54.89
60897;BME280;46749;32.932;-117.130;2023-04-15T02:50:02;101276.81;;;14.99;55.06
60897;BME280;46749;32.932;-117.130;2023-04-15T02:52:29;101280.28;;;14.98;54.72
60897;BME280;46749;32.932;-117.130;2023-04-15T02:54:55;101287.25;;;14.98;54.94
60897;BME280;46749;32.932;-117.130;2023-04-15T02:57:28;101291.63;;;14.99;55.06
60897;BME280;46749;32.932;-117.130;2023-04-15T02:59:54;101288.13;;;14.98;54.93
60897;BME280;46749;32.932;-117.130;2023-04-15T03:02:21;101293.38;;;14.98;54.95
60897;BME280;46749;32.932;-117.130;2023-04-15T03:04:47;101299.47;;;14.99;54.77
60897;BME280;46749;32.932;-117.130;2023-04-15T03:07:13;101301.22;;;14.98;54.59
60897;BME280;46749;32.932;-117.130;2023-04-15T03:09:40;101308.19;;;14.98;55.09
60897;BME280;46749;32.932;-117.130;2023-04-15T03:12:06;101318.69;;;14.99;54.84
60897;BME280;46749;32.932;-117.130;2023-04-15T03:14:32;101308.19;;;14.98;54.60
60897;BME280;46749;32.932;-117.130;2023-04-15T03:16:58;101316.91;;;14.98;54.75
60897;BME280;46749;32.932;-117.130;2023-04-15T03:19:25;101318.66;;;14.98;54.78
60897;BME280;46749;32.932;-117.130;2023-04-15T03:21:51;101325.63;;;14.99;54.81
60897;BME280;46749;32.932;-117.130;2023-04-15T03:24:17;101326.50;;;14.98;54.67
60897;BME280;46749;32.932;-117.130;2023-04-15T03:26:43;101332.59;;;14.98;54.73
60897;BME280;46749;32.932;-117.130;2023-04-15T03:29:10;101336.09;;;14.99;54.49
60897;BME280;46749;32.932;-117.130;2023-04-15T03:31:36;101339.56;;;14.98;54.62
60897;BME280;46749;32.932;-117.130;2023-04-15T03:34:02;101343.06;;;14.98;54.68
60897;BME280;46749;32.932;-117.130;2023-04-15T03:36:29;101350.03;;;14.98;54.58
60897;BME280;46749;32.932;-117.130;2023-04-15T03:38:59;101349.16;;;14.97;54.42
60897;BME280;46749;32.932;-117.130;2023-04-15T03:41:26;101360.50;;;14.98;54.47
60897;BME280;46749;32.932;-117.130;2023-04-15T03:43:53;101360.50;;;14.98;54.59
60897;BME280;46749;32.932;-117.130;2023-04-15T03:46:19;101370.97;;;14.98;54.42
60897;BME280;46749;32.932;-117.130;2023-04-15T03:48:46;101364.84;;;14.97;54.66
60897;BME280;46749;32.932;-117.130;2023-04-15T03:51:13;101376.19;;;14.98;54.71
60897;BME280;46749;32.932;-117.130;2023-04-15T03:53:39;101374.41;;;14.97;54.65
60897;BME280;46749;32.932;-117.130;2023-04-15T03:56:05;101375.22;;;14.96;54.79
60897;BME280;46749;32.932;-117.130;2023-04-15T03:58:32;101376.97;;;14.95;54.67
60897;BME280;46749;32.932;-117.130;2023-04-15T04:00:58;101381.38;;;14.96;54.72
60897;BME280;46749;32.932;-117.130;2023-04-15T04:03:24;101383.09;;;14.96;54.76
60897;BME280;46749;32.932;-117.130;2023-04-15T04:05:50;101391.84;;;14.96;54.51
60897;BME280;46749;32.932;-117.130;2023-04-15T04:08:17;101393.53;;;14.96;54.74
60897;BME280;46749;32.932;-117.130;2023-04-15T04:10:44;101397.88;;;14.95;54.47
60897;BME280;46749;32.932;-117.130;2023-04-15T04:13:10;101397.06;;;14.96;54.72
60897;BME280;46749;32.932;-117.130;2023-04-15T04:15:36;101403.19;;;14.97;54.53
60897;BME280;46749;32.932;-117.130;2023-04-15T04:18:03;101409.25;;;14.96;54.54
60897;BME280;46749;32.932;-117.130;2023-04-15T04:20:29;101411.84;;;14.96;54.49
60897;BME280;46749;32.932;-117.130;2023-04-15T04:22:57;101410.09;;;14.95;54.61
60897;BME280;46749;32.932;-117.130;2023-04-15T04:25:23;101416.19;;;14.95;54.73
60897;BME280;46749;32.932;-117.130;2023-04-15T04:27:50;101417.03;;;14.94;54.67
60897;BME280;46749;32.932;-117.130;2023-04-15T04:30:16;101429.28;;;14.95;54.37
60897;BME280;46749;32.932;-117.130;2023-04-15T04:32:42;101424.06;;;14.95;54.37
60897;BME280;46749;32.932;-117.130;2023-04-15T04:35:09;101431.84;;;14.94;54.36
60897;BME280;46749;32.932;-117.130;2023-04-15T04:37:36;101428.41;;;14.95;54.62
60897;BME280;46749;32.932;-117.130;2023-04-15T04:40:02;101429.25;;;14.94;54.57
60897;BME280;46749;32.932;-117.130;2023-04-15T04:42:29;101430.97;;;14.93;54.58
60897;BME280;46749;32.932;-117.130;2023-04-15T04:44:56;101430.09;;;14.93;54.61
60897;BME280;46749;32.932;-117.130;2023-04-15T04:47:22;101438.81;;;14.93;54.48
60897;BME280;46749;32.932;-117.130;2023-04-15T04:49:48;101448.41;;;14.93;54.35
60897;BME280;46749;32.932;-117.130;2023-04-15T04:52:15;101449.28;;;14.93;54.52
60897;BME280;46749;32.932;-117.130;2023-04-15T04:54:41;101452.75;;;14.92;54.46
60897;BME280;46749;32.932;-117.130;2023-04-15T04:57:07;101453.63;;;14.93;54.46
60897;BME280;46749;32.932;-117.130;2023-04-15T04:59:33;101466.72;;;14.93;54.47
60897;BME280;46749;32.932;-117.130;2023-04-15T05:02:00;101460.59;;;14.92;54.53
60897;BME280;46749;32.932;-117.130;2023-04-15T05:04:26;101471.94;;;14.93;54.64
60897;BME280;46749;32.932;-117.130;2023-04-15T05:06:52;101474.59;;;14.94;54.50
60897;BME280;46749;32.932;-117.130;2023-04-15T05:09:18;101467.63;;;14.95;54.36
60897;BME280;46749;32.932;-117.130;2023-04-15T05:11:45;101472.94;;;14.96;54.79
60897;BME280;46749;32.932;-117.130;2023-04-15T05:14:11;101476.38;;;14.95;54.47
60897;BME280;46749;32.932;-117.130;2023-04-15T05:16:37;101476.38;;;14.95;54.76
60897;BME280;46749;32.932;-117.130;2023-04-15T05:19:03;101475.47;;;14.95;54.76
60897;BME280;46749;32.932;-117.130;2023-04-15T05:21:30;101483.31;;;14.95;54.79
60897;BME280;46749;32.932;-117.130;2023-04-15T05:23:56;101479.81;;;14.94;54.94
60897;BME280;46749;32.932;-117.130;2023-04-15T05:26:22;101484.16;;;14.94;54.66
60897;BME280;46749;32.932;-117.130;2023-04-15T05:28:49;101486.78;;;14.94;54.76
60897;BME280;46749;32.932;-117.130;2023-04-15T05:31:15;101487.66;;;14.94;54.80
60897;BME280;46749;32.932;-117.130;2023-04-15T05:33:41;101489.41;;;14.94;54.84
60897;BME280;46749;32.932;-117.130;2023-04-15T05:36:08;101487.63;;;14.93;54.69
60897;BME280;46749;32.932;-117.130;2023-04-15T05:38:34;101491.13;;;14.93;54.60
60897;BME280;46749;32.932;-117.130;2023-04-15T05:41:01;101490.31;;;14.96;54.45
60897;BME280;46749;32.932;-117.130;2023-04-15T05:43:27;101492.94;;;14.96;54.79
60897;BME280;46749;32.932;-117.130;2023-04-15T05:45:53;101495.56;;;14.96;54.74
60897;BME280;46749;32.932;-117.130;2023-04-15T05:48:19;101491.16;;;14.95;54.55
60897;BME280;46749;32.932;-117.130;2023-04-15T05:50:46;101493.78;;;14.95;55.00
60897;BME280;46749;32.932;-117.130;2023-04-15T05:53:12;101492.94;;;14.96;54.83
60897;BME280;46749;32.932;-117.130;2023-04-15T05:55:38;101495.50;;;14.94;54.91
60897;BME280;46749;32.932;-117.130;2023-04-15T05:58:04;101490.28;;;14.94;54.68
60897;BME280;46749;32.932;-117.130;2023-04-15T06:00:31;101490.28;;;14.94;54.83
60897;BME280;46749;32.932;-117.130;2023-04-15T06:02:58;101494.63;;;14.94;54.82
60897;BME280;46749;32.932;-117.130;2023-04-15T06:05:25;101500.78;;;14.96;54.82
60897;BME280;46749;32.932;-117.130;2023-04-15T06:07:52;101505.22;;;14.97;55.02
60897;BME280;46749;32.932;-117.130;2023-04-15T06:10:18;101502.59;;;14.97;54.79
60897;BME280;46749;32.932;-117.130;2023-04-15T06:12:45;101499.97;;;14.97;54.84
60897;BME280;46749;32.932;-117.130;2023-04-15T06:15:11;101499.97;;;14.97;54.89
60897;BME280;46749;32.932;-117.130;2023-04-15T06:17:57;101504.31;;;14.96;54.78
60897;BME280;46749;32.932;-117.130;2023-04-15T06:20:24;101503.41;;;14.96;54.79
60897;BME280;46749;32.932;-117.130;2023-04-15T06:22:50;101506.94;;;14.96;54.90
60897;BME280;46749;32.932;-117.130;2023-04-15T06:25:17;101501.63;;;14.95;54.89
60897;BME280;46749;32.932;-117.130;2023-04-15T06:27:43;101499.88;;;14.94;54.99
60897;BME280;46749;32.932;-117.130;2023-04-15T06:30:09;101506.00;;;14.96;55.09
60897;BME280;46749;32.932;-117.130;2023-04-15T06:32:36;101509.56;;;14.96;55.09
60897;BME280;46749;32.932;-117.130;2023-04-15T06:35:02;101507.81;;;14.97;54.98
60897;BME280;46749;32.932;-117.130;2023-04-15T06:37:28;101508.72;;;14.97;54.90
60897;BME280;46749;32.932;-117.130;2023-04-15T06:39:55;101514.78;;;14.96;54.86
60897;BME280;46749;32.932;-117.130;2023-04-15T06:42:21;101514.78;;;14.96;55.10
60897;BME280;46749;32.932;-117.130;2023-04-15T06:44:48;101519.09;;;14.96;55.01
60897;BME280;46749;32.932;-117.130;2023-04-15T06:47:35;101524.31;;;14.96;54.89
60897;BME280;46749;32.932;-117.130;2023-04-15T06:50:01;101521.72;;;14.96;54.98
60897;BME280;46749;32.932;-117.130;2023-04-15T06:52:28;101525.19;;;14.95;55.08
60897;BME280;46749;32.932;-117.130;2023-04-15T06:54:55;101522.63;;;14.96;54.98
60897;BME280;46749;32.932;-117.130;2023-04-15T06:57:22;101521.78;;;14.97;54.93
60897;BME280;46749;32.932;-117.130;2023-04-15T06:59:48;101519.16;;;14.97;54.82
60897;BME280;46749;32.932;-117.130;2023-04-15T07:02:14;101526.13;;;14.97;55.06
60897;BME280;46749;32.932;-117.130;2023-04-15T07:04:41;101513.88;;;14.96;54.92
60897;BME280;46749;32.932;-117.130;2023-04-15T07:07:07;101524.31;;;14.96;55.10
60897;BME280;46749;32.932;-117.130;2023-04-15T07:09:34;101519.09;;;14.96;54.89
60897;BME280;46749;32.932;-117.130;2023-04-15T07:12:00;101519.09;;;14.96;55.11
60897;BME280;46749;32.932;-117.130;2023-04-15T07:14:26;101526.91;;;14.94;55.01
60897;BME280;46749;32.932;-117.130;2023-04-15T07:16:52;101529.56;;;14.96;55.00
60897;BME280;46749;32.932;-117.130;2023-04-15T07:19:19;101536.59;;;14.97;55.09
60897;BME280;46749;32.932;-117.130;2023-04-15T07:21:46;101527.00;;;14.97;55.17
60897;BME280;46749;32.932;-117.130;2023-04-15T07:24:12;101525.28;;;14.98;54.89
60897;BME280;46749;32.932;-117.130;2023-04-15T07:26:43;101531.38;;;14.97;54.99
60897;BME280;46749;32.932;-117.130;2023-04-15T07:29:09;101533.97;;;14.97;55.10
60897;BME280;46749;32.932;-117.130;2023-04-15T07:31:36;101535.72;;;14.96;55.14
60897;BME280;46749;32.932;-117.130;2023-04-15T07:34:03;101541.75;;;14.95;55.10
60897;BME280;46749;32.932;-117.130;2023-04-15T07:36:29;101543.47;;;14.95;55.13
60897;BME280;46749;32.932;-117.130;2023-04-15T07:38:56;101541.75;;;14.95;55.16
60897;BME280;46749;32.932;-117.130;2023-04-15T07:41:22;101546.16;;;14.96;55.07
60897;BME280;46749;32.932;-117.130;2023-04-15T07:43:48;101540.94;;;14.96;55.00
60897;BME280;46749;32.932;-117.130;2023-04-15T07:46:15;101541.81;;;14.97;55.34
60897;BME280;46749;32.932;-117.130;2023-04-15T07:48:41;101539.22;;;14.97;55.18
60897;BME280;46749;32.932;-117.130;2023-04-15T07:51:07;101547.06;;;14.97;55.34
60897;BME280;46749;32.932;-117.130;2023-04-15T07:53:35;101546.16;;;14.96;55.17
60897;BME280;46749;32.932;-117.130;2023-04-15T07:56:01;101548.72;;;14.95;55.29
60897;BME280;46749;32.932;-117.130;2023-04-15T07:58:28;101555.72;;;14.96;55.09
60897;BME280;46749;32.932;-117.130;2023-04-15T08:00:54;101548.72;;;14.95;55.21
60897;BME280;46749;32.932;-117.130;2023-04-15T08:03:21;101546.97;;;14.95;55.22
60897;BME280;46749;32.932;-117.130;2023-04-15T08:05:48;101549.69;;;14.97;55.07
60897;BME280;46749;32.932;-117.130;2023-04-15T08:08:14;101544.44;;;14.97;55.23
60897;BME280;46749;32.932;-117.130;2023-04-15T08:10:41;101547.06;;;14.97;55.36
60897;BME280;46749;32.932;-117.130;2023-04-15T08:13:07;101556.63;;;14.96;55.14
60897;BME280;46749;32.932;-117.130;2023-04-15T08:15:33;101551.34;;;14.95;55.16
60897;BME280;46749;32.932;-117.130;2023-04-15T08:18:00;101552.22;;;14.95;55.11
60897;BME280;46749;32.932;-117.130;2023-04-15T08:20:26;101552.19;;;14.94;55.10
60897;BME280;46749;32.932;-117.130;2023-04-15T08:22:53;101556.56;;;14.95;55.22
60897;BME280;46749;32.932;-117.130;2023-04-15T08:25:19;101559.19;;;14.95;55.28
60897;BME280;46749;32.932;-117.130;2023-04-15T08:27:46;101560.13;;;14.97;55.17
60897;BME280;46749;32.932;-117.130;2023-04-15T08:30:13;101557.53;;;14.97;55.17
60897;BME280;46749;32.932;-117.130;2023-04-15T08:32:41;101544.44;;;14.97;55.04
60897;BME280;46749;32.932;-117.130;2023-04-15T08:35:07;101541.81;;;14.97;55.21
60897;BME280;46749;32.932;-117.130;2023-04-15T08:37:33;101540.03;;;14.96;55.15
60897;BME280;46749;32.932;-117.130;2023-04-15T08:40:00;101541.72;;;14.94;55.25
60897;BME280;46749;32.932;-117.130;2023-04-15T08:42:31;101543.47;;;14.95;55.08
60897;BME280;46749;32.932;-117.130;2023-04-15T08:44:59;101542.59;;;14.94;55.05
60897;BME280;46749;32.932;-117.130;2023-04-15T08:47:29;101534.78;;;14.96;55.07
60897;BME280;46749;32.932;-117.130;2023-04-15T08:49:57;101547.06;;;14.97;55.16
60897;BME280;46749;32.932;-117.130;2023-04-15T08:52:25;101554.06;;;14.98;54.94
60897;BME280;46749;32.932;-117.130;2023-04-15T08:54:55;101552.28;;;14.97;55.13
60897;BME280;46749;32.932;-117.130;2023-04-15T08:57:27;101545.25;;;14.96;55.11
60897;BME280;46749;32.932;-117.130;2023-04-15T08:59:57;101543.47;;;14.95;55.43
60897;BME280;46749;32.932;-117.130;2023-04-15T09:02:24;101546.09;;;14.95;55.26
60897;BME280;46749;32.932;-117.130;2023-04-15T09:04:52;101552.19;;;14.94;55.31
60897;BME280;46749;32.932;-117.130;2023-04-15T09:07:18;101548.72;;;14.95;55.37
60897;BME280;46749;32.932;-117.130;2023-04-15T09:09:45;101545.25;;;14.96;55.20
60897;BME280;46749;32.932;-117.130;2023-04-15T09:12:12;101546.16;;;14.96;55.11
60897;BME280;46749;32.932;-117.130;2023-04-15T09:14:42;101544.38;;;14.95;55.44
60897;BME280;46749;32.932;-117.130;2023-04-15T09:17:09;101540.03;;;14.96;55.34
60897;BME280;46749;32.932;-117.130;2023-04-15T09:19:36;101539.13;;;14.95;55.31
60897;BME280;46749;32.932;-117.130;2023-04-15T09:22:03;101543.47;;;14.95;55.08
60897;BME280;46749;32.932;-117.130;2023-04-15T09:24:37;101549.56;;;14.94;55.29
60897;BME280;46749;32.932;-117.130;2023-04-15T09:27:04;101548.72;;;14.95;55.46
60897;BME280;46749;32.932;-117.130;2023-04-15T09:29:31;101543.47;;;14.95;55.39
60897;BME280;46749;32.932;-117.130;2023-04-15T09:32:14;101547.88;;;14.96;55.14
60897;BME280;46749;32.932;-117.130;2023-04-15T09:34:41;101555.72;;;14.96;55.00
60897;BME280;46749;32.932;-117.130;2023-04-15T09:37:08;101546.09;;;14.95;55.10
60897;BME280;46749;32.932;-117.130;2023-04-15T09:39:49;101550.47;;;14.96;55.25
60897;BME280;46749;32.932;-117.130;2023-04-15T09:42:15;101547.81;;;14.94;55.30
60897;BME280;46749;32.932;-117.130;2023-04-15T09:45:11;101541.72;;;14.94;55.29
60897;BME280;46749;32.932;-117.130;2023-04-15T09:47:37;101544.31;;;14.94;55.20
60897;BME280;46749;32.932;-117.130;2023-04-15T09:50:04;101540.88;;;14.95;55.12
60897;BME280;46749;32.932;-117.130;2023-04-15T09:52:30;101545.25;;;14.96;55.25
60897;BME280;46749;32.932;-117.130;2023-04-15T09:54:58;101546.94;;;14.94;55.31
60897;BME280;46749;32.932;-117.130;2023-04-15T09:57:34;101542.59;;;14.94;55.39
60897;BME280;46749;32.932;-117.130;2023-04-15T10:00:06;101548.72;;;14.95;55.47
60897;BME280;46749;32.932;-117.130;2023-04-15T10:02:51;101547.81;;;14.94;55.24
60897;BME280;46749;32.932;-117.130;2023-04-15T10:05:17;101548.69;;;14.93;55.10
60897;BME280;46749;32.932;-117.130;2023-04-15T10:07:44;101553.06;;;14.94;55.44
60897;BME280;46749;32.932;-117.130;2023-04-15T10:10:11;101552.22;;;14.95;55.09
60897;BME280;46749;32.932;-117.130;2023-04-15T10:12:40;101549.59;;;14.95;55.26
60897;BME280;46749;32.932;-117.130;2023-04-15T10:15:12;101560.06;;;14.95;55.34
60897;BME280;46749;32.932;-117.130;2023-04-15T10:17:43;101553.94;;;14.95;55.47
60897;BME280;46749;32.932;-117.130;2023-04-15T10:20:10;101548.69;;;14.93;55.39
60897;BME280;46749;32.932;-117.130;2023-04-15T10:22:38;101549.56;;;14.94;55.73
60897;BME280;46749;32.932;-117.130;2023-04-15T10:25:06;101557.41;;;14.94;55.24
60897;BME280;46749;32.932;-117.130;2023-04-15T10:27:32;101557.41;;;14.94;55.46
60897;BME280;46749;32.932;-117.130;2023-04-15T10:29:59;101546.94;;;14.94;55.38
60897;BME280;46749;32.932;-117.130;2023-04-15T10:32:29;101545.25;;;14.96;55.26
60897;BME280;46749;32.932;-117.130;2023-04-15T10:35:16;101540.94;;;14.96;55.34
60897;BME280;46749;32.932;-117.130;2023-04-15T10:37:42;101538.25;;;14.95;55.51
60897;BME280;46749;32.932;-117.130;2023-04-15T10:40:26;101547.88;;;14.96;55.55
60897;BME280;46749;32.932;-117.130;2023-04-15T10:42:59;101540.88;;;14.95;55.42
60897;BME280;46749;32.932;-117.130;2023-04-15T10:45:33;101548.72;;;14.95;55.19
60897;BME280;46749;32.932;-117.130;2023-04-15T10:48:03;101552.22;;;14.95;55.60
60897;BME280;46749;32.932;-117.130;2023-04-15T10:50:31;101541.81;;;14.97;55.32
60897;BME280;46749;32.932;-117.130;2023-04-15T10:53:01;101533.09;;;14.96;55.19
60897;BME280;46749;32.932;-117.130;2023-04-15T10:55:32;101534.78;;;14.96;55.62
60897;BME280;46749;32.932;-117.130;2023-04-15T10:57:59;101540.94;;;14.96;55.42
60897;BME280;46749;32.932;-117.130;2023-04-15T11:00:29;101546.97;;;14.95;55.41
60897;BME280;46749;32.932;-117.130;2023-04-15T11:05:49;101548.72;;;14.95;55.39
60897;BME280;46749;32.932;-117.130;2023-04-15T11:08:16;101556.63;;;14.96;55.49
60897;BME280;46749;32.932;-117.130;2023-04-15T11:15:37;101557.53;;;14.97;55.33
60897;BME280;46749;32.932;-117.130;2023-04-15T11:18:11;101565.38;;;14.97;55.66
60897;BME280;46749;32.932;-117.130;2023-04-15T11:20:39;101566.19;;;14.96;55.38
60897;BME280;46749;32.932;-117.130;2023-04-15T11:23:05;101564.41;;;14.95;55.52
60897;BME280;46749;32.932;-117.130;2023-04-15T11:25:33;101560.94;;;14.96;55.43
60897;BME280;46749;32.932;-117.130;2023-04-15T11:28:01;101560.94;;;14.96;55.37
60897;BME280;46749;32.932;-117.130;2023-04-15T11:30:29;101569.75;;;14.98;55.49
60897;BME280;46749;32.932;-117.130;2023-04-15T11:32:59;101574.09;;;14.97;55.46
60897;BME280;46749;32.932;-117.130;2023-04-15T11:35:25;101575.84;;;14.97;55.33
60897;BME280;46749;32.932;-117.130;2023-04-15T11:37:52;101578.44;;;14.97;55.50
60897;BME280;46749;32.932;-117.130;2023-04-15T11:40:25;101588.03;;;14.96;55.52
60897;BME280;46749;32.932;-117.130;2023-04-15T11:45:38;101591.44;;;14.95;55.48
60897;BME280;46749;32.932;-117.130;2023-04-15T11:48:13;101583.69;;;14.97;55.55
60897;BME280;46749;32.932;-117.130;2023-04-15T11:50:40;101585.44;;;14.98;55.43
60897;BME280;46749;32.932;-117.130;2023-04-15T11:53:08;101590.69;;;14.98;55.22
60897;BME280;46749;32.932;-117.130;2023-04-15T11:56:01;101585.44;;;14.98;55.67
60897;BME280;46749;32.932;-117.130;2023-04-15T11:58:28;101580.22;;;14.98;55.25
60897;BME280;46749;32.932;-117.130;2023-04-15T12:00:58;101579.34;;;14.97;55.76
60897;BME280;46749;32.932;-117.130;2023-04-15T12:03:58;101588.91;;;14.97;55.64
60897;BME280;46749;32.932;-117.130;2023-04-15T12:06:23;101586.28;;;14.97;55.61
60897;BME280;46749;32.932;-117.130;2023-04-15T12:09:09;101593.31;;;14.98;55.49
60897;BME280;46749;32.932;-117.130;2023-04-15T12:11:47;101596.81;;;14.98;55.36
60897;BME280;46749;32.932;-117.130;2023-04-15T12:14:27;101604.66;;;14.98;55.61
60897;BME280;46749;32.932;-117.130;2023-04-15T12:17:04;101602.03;;;14.98;55.62
60897;BME280;46749;32.932;-117.130;2023-04-15T12:19:40;101594.13;;;14.97;55.56
60897;BME280;46749;32.932;-117.130;2023-04-15T12:22:09;101605.50;;;14.97;55.64
60897;BME280;46749;32.932;-117.130;2023-04-15T12:24:36;101609.84;;;14.97;55.45
60897;BME280;46749;32.932;-117.130;2023-04-15T12:27:08;101611.59;;;14.98;55.60
60897;BME280;46749;32.932;-117.130;2023-04-15T12:29:37;101601.16;;;14.98;55.64
60897;BME280;46749;32.932;-117.130;2023-04-15T12:32:16;101609.88;;;14.98;55.66
60897;BME280;46749;32.932;-117.130;2023-04-15T12:34:49;101608.16;;;14.99;55.61